Agoura, CA

2:55 PM PDT on August 27, 2014 (GMT -0700)
Van Nuys | Change Station
CLOSE
Current Station
Airport
Location: Van Nuys,
Elevation: 801 ft
Nearby Weather Stations

Elev 801 ft 34.22 °N, 118.49 °W | Updated 4 minutes ago

Clear
Clear
94 °F
Feels Like 94 °F
N
8
Wind Variable Wind from SSE

Today
High -- | Low -- °F
--% Chance of Precip.
Yesterday
High -- | Low -- °F
Precip. -- in
6:25 AM 7:27 PM
Waxing Crescent, 5% visible
Pressure 29.96 in
Visibility 10.0 miles
Clouds Clear
Dew Point 43 °F
Humidity 17%
Rainfall 0.00 in
Snow Depth Not available.
UV 9 out of 12
Pollen 7.50 out of 12
Ozone Moderate
PM2.5 Moderate
Flu Activity Not available.
METAR KVNY 272151Z 15007KT 10SM CLR 34/06 A2999 RMK AO2 SLP143 T03440061

More Conditions Fewer Conditions

Pressure 29.96 in
Visibility 10.0 miles
Clouds Clear
Dew Point 43 °F
Humidity 17%
Rainfall 0.00 in
Snow Depth Not available.
UV 9 out of 12
Pollen 7.50 out of 12
Ozone Moderate
PM2.5 Moderate
Flu Activity Not available.
METAR KVNY 272151Z 15007KT 10SM CLR 34/06 A2999 RMK AO2 SLP143 T03440061

More Conditions Fewer Conditions

10-Day Weather Forecast

Almanac

Astronomy

Aug. 27, 2014 Rise Set
Actual Time 6:25 AM PDT 7:27 PM PDT
Civil Twilight 5:59 AM PDT 7:53 PM PDT
Nautical Twilight 5:28 AM PDT 8:23 PM PDT
Astronomical Twilight 4:56 AM PDT 8:55 PM PDT
Moon 8:18 AM PDT 8:30 PM PDT
Length of Visible Light 13h 53m
Length of Day
13h 02m
Tomorrow will be 1m 59s shorter.
Waxing Crescent, 5% of the Moon is Illuminated
Today
Waxing Crescent
Sep 2
First Quarter
Sep 8
Full
Sep 15
Last Quarter
Sep 24
New

Today's Extremes

State Highs State Lows

Community

WunderPhotos

Upload Photos

1,747,791 photos uploaded!

Nearby

Air Quality

  Air Quality AQ Index Pollutant
Yesterday Moderate
PM2.5
Yesterday Good
OZONE
Current Moderate
OZONE
Current Moderate
PM2.5
Thursday Good
PM10
Thursday Good
OZONE
Thursday Good
CO
Thursday Good
NO2

Snow Depth

Station Depth Elevation
Leavitt Lake 0 in 9400 ft
Leavitt Meadows 1 in 7200 ft
Summit Meadow 0 in 9122 ft
Fallen Leaf 0 in 6300 ft
Rubicon #2 0 in 7500 ft

Earthquake Activity

City Distance Mag. Time & Date
San Fernando, California 21 miles 2.5 4:57 AM PDT
2014-08-26
San Pedro, California 41 miles 3.2 7:50 PM PDT
2014-08-24
Minimum magnitude displayed is 2.5.

Coastal Water Temperatures

Place Temperature
Santa Monica Pier 72.0 °F
Los Angeles, CA 66.9 °F
La Jolla, CA 73.0 °F

Nearby Weather Stations